sensor_id;sensor_type;location;lat;lon;timestamp;temperature;humidity
285;DHT22;127;48.770;9.212;2023-06-14T00:03:22;15.20;99.90
285;DHT22;127;48.770;9.212;2023-06-14T00:05:51;15.20;99.90
285;DHT22;127;48.770;9.212;2023-06-14T00:08:20;15.20;99.90
285;DHT22;127;48.770;9.212;2023-06-14T00:15:51;15.00;99.90
285;DHT22;127;48.770;9.212;2023-06-14T00:20:55;15.00;99.90
285;DHT22;127;48.770;9.212;2023-06-14T00:25:52;14.90;99.90
285;DHT22;127;48.770;9.212;2023-06-14T00:28:21;14.90;99.90
285;DHT22;127;48.770;9.212;2023-06-14T00:30:52;14.80;99.90
285;DHT22;127;48.770;9.212;2023-06-14T00:33:21;14.80;99.90
285;DHT22;127;48.770;9.212;2023-06-14T00:35:50;14.70;99.90
285;DHT22;127;48.770;9.212;2023-06-14T00:38:19;14.30;99.90
285;DHT22;127;48.770;9.212;2023-06-14T00:40:51;14.60;99.90
285;DHT22;127;48.770;9.212;2023-06-14T00:45:54;14.50;99.90
285;DHT22;127;48.770;9.212;2023-06-14T00:48:23;14.40;99.90
285;DHT22;127;48.770;9.212;2023-06-14T00:50:52;14.40;99.90
285;DHT22;127;48.770;9.212;2023-06-14T00:53:22;14.30;99.90
285;DHT22;127;48.770;9.212;2023-06-14T00:55:51;14.20;99.90
285;DHT22;127;48.770;9.212;2023-06-14T00:58:20;14.20;99.90
285;DHT22;127;48.770;9.212;2023-06-14T01:00:50;14.10;99.90
285;DHT22;127;48.770;9.212;2023-06-14T01:03:22;14.10;99.90
285;DHT22;127;48.770;9.212;2023-06-14T01:05:53;14.00;99.90
285;DHT22;127;48.770;9.212;2023-06-14T01:08:30;14.00;99.90
285;DHT22;127;48.770;9.212;2023-06-14T01:11:05;14.00;99.90
285;DHT22;127;48.770;9.212;2023-06-14T01:13:38;13.90;99.90
285;DHT22;127;48.770;9.212;2023-06-14T01:16:08;13.90;99.90
285;DHT22;127;48.770;9.212;2023-06-14T01:18:39;14.10;99.90
285;DHT22;127;48.770;9.212;2023-06-14T01:21:20;13.80;99.90
285;DHT22;127;48.770;9.212;2023-06-14T01:23:52;13.80;99.90
285;DHT22;127;48.770;9.212;2023-06-14T01:26:22;13.50;99.90
285;DHT22;127;48.770;9.212;2023-06-14T01:28:52;13.70;99.90
285;DHT22;127;48.770;9.212;2023-06-14T01:31:24;13.70;99.90
285;DHT22;127;48.770;9.212;2023-06-14T01:33:53;13.60;99.90
285;DHT22;127;48.770;9.212;2023-06-14T01:36:22;13.60;99.90
285;DHT22;127;48.770;9.212;2023-06-14T01:38:59;13.50;99.90
285;DHT22;127;48.770;9.212;2023-06-14T01:41:28;13.50;99.90
285;DHT22;127;48.770;9.212;2023-06-14T01:43:58;13.50;99.90
285;DHT22;127;48.770;9.212;2023-06-14T01:53:59;13.30;99.90
285;DHT22;127;48.770;9.212;2023-06-14T02:03:56;13.20;99.90
285;DHT22;127;48.770;9.212;2023-06-14T02:06:26;13.20;99.90
285;DHT22;127;48.770;9.212;2023-06-14T02:08:55;13.20;99.90
285;DHT22;127;48.770;9.212;2023-06-14T02:11:26;13.10;99.90
285;DHT22;127;48.770;9.212;2023-06-14T02:16:25;13.10;99.90
285;DHT22;127;48.770;9.212;2023-06-14T02:23:52;13.00;99.90
285;DHT22;127;48.770;9.212;2023-06-14T02:26:21;13.00;99.90
285;DHT22;127;48.770;9.212;2023-06-14T02:28:53;13.00;99.90
285;DHT22;127;48.770;9.212;2023-06-14T02:33:51;12.90;99.90
285;DHT22;127;48.770;9.212;2023-06-14T02:36:19;12.60;99.90
285;DHT22;127;48.770;9.212;2023-06-14T02:43:54;12.80;99.90
285;DHT22;127;48.770;9.212;2023-06-14T02:51:22;12.70;99.90
285;DHT22;127;48.770;9.212;2023-06-14T02:56:20;12.70;99.90
285;DHT22;127;48.770;9.212;2023-06-14T02:58:49;12.70;99.90
285;DHT22;127;48.770;9.212;2023-06-14T03:01:21;12.60;99.90
285;DHT22;127;48.770;9.212;2023-06-14T03:03:50;12.60;99.90
285;DHT22;127;48.770;9.212;2023-06-14T03:06:19;12.70;99.90
285;DHT22;127;48.770;9.212;2023-06-14T03:08:50;12.50;99.90
285;DHT22;127;48.770;9.212;2023-06-14T03:11:20;12.50;99.90
285;DHT22;127;48.770;9.212;2023-06-14T03:13:49;12.50;99.90
285;DHT22;127;48.770;9.212;2023-06-14T03:16:21;12.50;99.90
285;DHT22;127;48.770;9.212;2023-06-14T03:18:51;12.60;99.90
285;DHT22;127;48.770;9.212;2023-06-14T03:23:49;12.50;99.90
285;DHT22;127;48.770;9.212;2023-06-14T03:26:18;12.40;99.90
285;DHT22;127;48.770;9.212;2023-06-14T03:28:48;12.40;99.90
285;DHT22;127;48.770;9.212;2023-06-14T03:31:16;12.50;99.90
285;DHT22;127;48.770;9.212;2023-06-14T03:33:48;12.40;99.90
285;DHT22;127;48.770;9.212;2023-06-14T03:36:17;12.40;99.90
285;DHT22;127;48.770;9.212;2023-06-14T03:38:46;12.40;99.90
285;DHT22;127;48.770;9.212;2023-06-14T03:41:14;12.40;99.90
285;DHT22;127;48.770;9.212;2023-06-14T03:43:45;12.40;99.90
285;DHT22;127;48.770;9.212;2023-06-14T03:46:13;12.40;99.90
285;DHT22;127;48.770;9.212;2023-06-14T03:48:42;12.20;99.90
285;DHT22;127;48.770;9.212;2023-06-14T03:51:13;12.30;99.90
285;DHT22;127;48.770;9.212;2023-06-14T03:56:11;12.40;99.90
285;DHT22;127;48.770;9.212;2023-06-14T03:58:40;12.40;99.90
285;DHT22;127;48.770;9.212;2023-06-14T04:01:09;12.40;99.90
285;DHT22;127;48.770;9.212;2023-06-14T04:03:38;12.40;99.90
285;DHT22;127;48.770;9.212;2023-06-14T04:06:06;12.40;99.90
285;DHT22;127;48.770;9.212;2023-06-14T04:08:38;12.50;99.90
285;DHT22;127;48.770;9.212;2023-06-14T04:11:07;12.40;99.90
285;DHT22;127;48.770;9.212;2023-06-14T04:13:35;12.50;99.90
285;DHT22;127;48.770;9.212;2023-06-14T04:18:34;12.50;99.90
285;DHT22;127;48.770;9.212;2023-06-14T04:21:02;12.50;99.90
285;DHT22;127;48.770;9.212;2023-06-14T04:23:31;12.50;99.90
285;DHT22;127;48.770;9.212;2023-06-14T04:26:03;12.60;99.90
285;DHT22;127;48.770;9.212;2023-06-14T04:28:31;12.50;99.90
285;DHT22;127;48.770;9.212;2023-06-14T04:31:03;12.50;99.90
285;DHT22;127;48.770;9.212;2023-06-14T04:33:34;12.50;99.90
285;DHT22;127;48.770;9.212;2023-06-14T04:38:43;12.80;99.90
285;DHT22;127;48.770;9.212;2023-06-14T04:41:14;12.60;99.90
285;DHT22;127;48.770;9.212;2023-06-14T04:43:44;12.60;99.90
285;DHT22;127;48.770;9.212;2023-06-14T04:46:14;12.70;99.90
285;DHT22;127;48.770;9.212;2023-06-14T04:48:42;12.70;99.90
285;DHT22;127;48.770;9.212;2023-06-14T04:51:11;12.90;99.90
285;DHT22;127;48.770;9.212;2023-06-14T04:53:41;12.70;99.90
285;DHT22;127;48.770;9.212;2023-06-14T04:56:10;12.70;99.90
285;DHT22;127;48.770;9.212;2023-06-14T04:58:43;12.80;99.90
285;DHT22;127;48.770;9.212;2023-06-14T05:03:41;12.90;99.90
285;DHT22;127;48.770;9.212;2023-06-14T05:06:11;13.00;99.90
285;DHT22;127;48.770;9.212;2023-06-14T05:08:40;12.90;99.90
285;DHT22;127;48.770;9.212;2023-06-14T05:11:08;13.20;99.90
285;DHT22;127;48.770;9.212;2023-06-14T05:13:37;13.30;99.90
285;DHT22;127;48.770;9.212;2023-06-14T05:16:12;13.40;99.90
285;DHT22;127;48.770;9.212;2023-06-14T05:18:41;13.50;99.90
285;DHT22;127;48.770;9.212;2023-06-14T05:21:11;13.60;99.90
285;DHT22;127;48.770;9.212;2023-06-14T05:23:42;13.50;99.90
285;DHT22;127;48.770;9.212;2023-06-14T05:26:11;13.80;99.90
285;DHT22;127;48.770;9.212;2023-06-14T05:31:11;14.00;99.90
285;DHT22;127;48.770;9.212;2023-06-14T05:33:40;14.10;99.90
285;DHT22;127;48.770;9.212;2023-06-14T05:41:07;14.40;99.90
285;DHT22;127;48.770;9.212;2023-06-14T05:43:36;14.50;99.90
285;DHT22;127;48.770;9.212;2023-06-14T05:46:04;14.60;99.90
285;DHT22;127;48.770;9.212;2023-06-14T05:48:36;14.70;99.90
285;DHT22;127;48.770;9.212;2023-06-14T05:51:04;15.00;99.90
285;DHT22;127;48.770;9.212;2023-06-14T05:53:34;13.80;99.90
285;DHT22;127;48.770;9.212;2023-06-14T05:56:03;15.00;99.90
285;DHT22;127;48.770;9.212;2023-06-14T05:58:32;15.10;99.90
285;DHT22;127;48.770;9.212;2023-06-14T06:01:01;15.20;99.90
285;DHT22;127;48.770;9.212;2023-06-14T06:03:29;15.30;99.90
285;DHT22;127;48.770;9.212;2023-06-14T06:09:12;15.50;99.90
285;DHT22;127;48.770;9.212;2023-06-14T06:14:09;15.80;99.90
285;DHT22;127;48.770;9.212;2023-06-14T06:16:38;15.90;99.90
285;DHT22;127;48.770;9.212;2023-06-14T06:21:36;16.20;99.90
285;DHT22;127;48.770;9.212;2023-06-14T06:24:06;16.30;99.90
285;DHT22;127;48.770;9.212;2023-06-14T06:26:37;16.50;99.90
285;DHT22;127;48.770;9.212;2023-06-14T06:29:06;16.60;99.90
285;DHT22;127;48.770;9.212;2023-06-14T06:31:34;16.70;99.90
285;DHT22;127;48.770;9.212;2023-06-14T06:34:03;16.80;99.90
285;DHT22;127;48.770;9.212;2023-06-14T06:39:01;16.90;99.90
285;DHT22;127;48.770;9.212;2023-06-14T06:41:39;17.20;99.90
285;DHT22;127;48.770;9.212;2023-06-14T06:44:08;17.10;99.90
285;DHT22;127;48.770;9.212;2023-06-14T06:46:36;17.10;99.90
285;DHT22;127;48.770;9.212;2023-06-14T06:49:06;17.20;99.90
285;DHT22;127;48.770;9.212;2023-06-14T06:51:40;17.40;99.90
285;DHT22;127;48.770;9.212;2023-06-14T06:54:10;17.30;99.90
285;DHT22;127;48.770;9.212;2023-06-14T06:56:42;17.40;99.90
285;DHT22;127;48.770;9.212;2023-06-14T06:59:12;17.50;99.90
285;DHT22;127;48.770;9.212;2023-06-14T07:01:42;17.60;99.90
285;DHT22;127;48.770;9.212;2023-06-14T07:06:41;17.80;99.90
285;DHT22;127;48.770;9.212;2023-06-14T07:09:11;17.80;99.90
285;DHT22;127;48.770;9.212;2023-06-14T07:11:44;17.80;99.90
285;DHT22;127;48.770;9.212;2023-06-14T07:19:12;18.10;99.90
285;DHT22;127;48.770;9.212;2023-06-14T07:21:41;18.30;99.90
285;DHT22;127;48.770;9.212;2023-06-14T07:24:10;18.20;99.90
285;DHT22;127;48.770;9.212;2023-06-14T07:26:39;18.30;99.90
285;DHT22;127;48.770;9.212;2023-06-14T07:29:10;18.30;99.90
285;DHT22;127;48.770;9.212;2023-06-14T07:31:38;18.30;99.90
285;DHT22;127;48.770;9.212;2023-06-14T07:34:07;18.40;99.90
285;DHT22;127;48.770;9.212;2023-06-14T07:36:36;18.40;99.90
285;DHT22;127;48.770;9.212;2023-06-14T07:44:04;19.00;99.90
285;DHT22;127;48.770;9.212;2023-06-14T07:46:35;19.00;99.90
285;DHT22;127;48.770;9.212;2023-06-14T07:51:33;19.20;99.90
285;DHT22;127;48.770;9.212;2023-06-14T07:54:02;19.30;99.90
285;DHT22;127;48.770;9.212;2023-06-14T07:56:32;19.30;99.90
285;DHT22;127;48.770;9.212;2023-06-14T08:01:31;19.40;99.90
285;DHT22;127;48.770;9.212;2023-06-14T08:04:03;19.40;99.90
285;DHT22;127;48.770;9.212;2023-06-14T08:06:33;19.60;99.90
285;DHT22;127;48.770;9.212;2023-06-14T08:11:31;19.70;99.90
285;DHT22;127;48.770;9.212;2023-06-14T08:14:01;19.70;99.90
285;DHT22;127;48.770;9.212;2023-06-14T08:16:30;19.70;99.90
285;DHT22;127;48.770;9.212;2023-06-14T08:19:02;20.00;99.90
285;DHT22;127;48.770;9.212;2023-06-14T08:24:02;20.40;99.90
285;DHT22;127;48.770;9.212;2023-06-14T08:26:31;20.50;99.90
285;DHT22;127;48.770;9.212;2023-06-14T08:29:00;20.60;99.90
285;DHT22;127;48.770;9.212;2023-06-14T08:31:29;20.60;99.90
285;DHT22;127;48.770;9.212;2023-06-14T08:36:29;20.90;99.90
285;DHT22;127;48.770;9.212;2023-06-14T08:38:57;20.80;99.90
285;DHT22;127;48.770;9.212;2023-06-14T08:41:28;21.10;99.90
285;DHT22;127;48.770;9.212;2023-06-14T08:43:57;21.10;99.90
285;DHT22;127;48.770;9.212;2023-06-14T08:46:26;21.60;99.90
285;DHT22;127;48.770;9.212;2023-06-14T08:51:25;21.90;99.90
285;DHT22;127;48.770;9.212;2023-06-14T08:54:20;22.00;99.90
285;DHT22;127;48.770;9.212;2023-06-14T08:56:56;22.60;99.90
285;DHT22;127;48.770;9.212;2023-06-14T08:59:26;22.40;99.90
285;DHT22;127;48.770;9.212;2023-06-14T09:01:57;22.40;99.90
285;DHT22;127;48.770;9.212;2023-06-14T09:04:25;22.40;99.90
285;DHT22;127;48.770;9.212;2023-06-14T09:06:55;22.80;99.90
285;DHT22;127;48.770;9.212;2023-06-14T09:09:26;23.00;99.90
285;DHT22;127;48.770;9.212;2023-06-14T09:11:55;23.30;99.90
285;DHT22;127;48.770;9.212;2023-06-14T09:14:24;23.40;99.90
285;DHT22;127;48.770;9.212;2023-06-14T09:19:23;24.60;99.90
285;DHT22;127;48.770;9.212;2023-06-14T09:21:53;24.70;99.90
285;DHT22;127;48.770;9.212;2023-06-14T09:24:26;25.30;99.90
285;DHT22;127;48.770;9.212;2023-06-14T09:26:55;25.10;99.90
285;DHT22;127;48.770;9.212;2023-06-14T09:29:23;25.70;99.90
285;DHT22;127;48.770;9.212;2023-06-14T09:31:53;26.20;99.90
285;DHT22;127;48.770;9.212;2023-06-14T09:34:22;26.80;99.90
285;DHT22;127;48.770;9.212;2023-06-14T09:36:52;27.60;99.90
285;DHT22;127;48.770;9.212;2023-06-14T09:39:20;28.30;99.90
285;DHT22;127;48.770;9.212;2023-06-14T09:41:53;28.30;99.90
285;DHT22;127;48.770;9.212;2023-06-14T09:44:22;28.20;99.90
285;DHT22;127;48.770;9.212;2023-06-14T09:46:57;30.00;99.90
285;DHT22;127;48.770;9.212;2023-06-14T09:49:27;30.70;99.90
285;DHT22;127;48.770;9.212;2023-06-14T09:51:59;31.50;99.90
285;DHT22;127;48.770;9.212;2023-06-14T09:54:28;31.30;99.90
285;DHT22;127;48.770;9.212;2023-06-14T09:57:01;30.50;99.90
285;DHT22;127;48.770;9.212;2023-06-14T09:59:31;30.30;99.90
285;DHT22;127;48.770;9.212;2023-06-14T10:02:06;31.80;99.90
285;DHT22;127;48.770;9.212;2023-06-14T10:04:37;31.30;99.90
285;DHT22;127;48.770;9.212;2023-06-14T10:07:06;31.50;99.90
285;DHT22;127;48.770;9.212;2023-06-14T10:09:36;30.90;99.90
285;DHT22;127;48.770;9.212;2023-06-14T10:12:12;30.90;99.90
285;DHT22;127;48.770;9.212;2023-06-14T10:14:48;33.30;99.90
285;DHT22;127;48.770;9.212;2023-06-14T10:17:27;33.60;99.90
285;DHT22;127;48.770;9.212;2023-06-14T10:20:14;33.40;99.90
285;DHT22;127;48.770;9.212;2023-06-14T10:22:50;33.30;99.90
285;DHT22;127;48.770;9.212;2023-06-14T10:25:26;33.30;99.90
285;DHT22;127;48.770;9.212;2023-06-14T10:28:17;33.90;99.90
285;DHT22;127;48.770;9.212;2023-06-14T10:31:06;35.00;99.90
285;DHT22;127;48.770;9.212;2023-06-14T10:33:36;34.40;99.90
285;DHT22;127;48.770;9.212;2023-06-14T10:36:09;33.30;99.90
285;DHT22;127;48.770;9.212;2023-06-14T10:38:38;33.50;99.90
285;DHT22;127;48.770;9.212;2023-06-14T10:41:07;33.90;99.90
285;DHT22;127;48.770;9.212;2023-06-14T10:43:38;32.90;99.90
285;DHT22;127;48.770;9.212;2023-06-14T10:46:14;32.90;99.90
285;DHT22;127;48.770;9.212;2023-06-14T10:48:44;33.60;99.90
285;DHT22;127;48.770;9.212;2023-06-14T10:51:19;34.10;99.90
285;DHT22;127;48.770;9.212;2023-06-14T10:53:50;31.60;99.90
285;DHT22;127;48.770;9.212;2023-06-14T10:56:29;31.50;99.90
285;DHT22;127;48.770;9.212;2023-06-14T10:59:00;29.30;99.90
285;DHT22;127;48.770;9.212;2023-06-14T11:01:35;29.20;99.90
285;DHT22;127;48.770;9.212;2023-06-14T11:04:08;28.90;99.90
285;DHT22;127;48.770;9.212;2023-06-14T11:06:59;28.30;99.90
285;DHT22;127;48.770;9.212;2023-06-14T11:09:56;26.80;99.90
285;DHT22;127;48.770;9.212;2023-06-14T11:12:34;26.80;99.90
285;DHT22;127;48.770;9.212;2023-06-14T11:15:08;28.10;99.90
285;DHT22;127;48.770;9.212;2023-06-14T11:17:37;28.40;99.90
285;DHT22;127;48.770;9.212;2023-06-14T11:20:09;28.40;99.90
285;DHT22;127;48.770;9.212;2023-06-14T11:22:42;31.40;99.90
285;DHT22;127;48.770;9.212;2023-06-14T11:25:11;31.40;99.90
285;DHT22;127;48.770;9.212;2023-06-14T11:27:41;32.40;99.90
285;DHT22;127;48.770;9.212;2023-06-14T11:30:13;33.20;99.90
285;DHT22;127;48.770;9.212;2023-06-14T11:32:46;33.40;99.90
285;DHT22;127;48.770;9.212;2023-06-14T11:35:21;33.80;99.90
285;DHT22;127;48.770;9.212;2023-06-14T11:37:53;33.70;99.00
285;DHT22;127;48.770;9.212;2023-06-14T11:40:23;33.00;99.90
285;DHT22;127;48.770;9.212;2023-06-14T11:42:58;33.90;97.00
285;DHT22;127;48.770;9.212;2023-06-14T11:45:30;34.10;99.90
285;DHT22;127;48.770;9.212;2023-06-14T11:48:03;33.60;99.90
285;DHT22;127;48.770;9.212;2023-06-14T11:50:37;32.30;98.70
285;DHT22;127;48.770;9.212;2023-06-14T11:53:07;32.20;99.00
285;DHT22;127;48.770;9.212;2023-06-14T11:55:36;33.20;98.40
285;DHT22;127;48.770;9.212;2023-06-14T12:00:38;34.40;93.30
285;DHT22;127;48.770;9.212;2023-06-14T12:03:07;34.40;94.60
285;DHT22;127;48.770;9.212;2023-06-14T12:05:36;34.60;93.00
285;DHT22;127;48.770;9.212;2023-06-14T12:08:05;34.40;98.60
285;DHT22;127;48.770;9.212;2023-06-14T12:10:42;33.90;93.00
285;DHT22;127;48.770;9.212;2023-06-14T12:19:26;34.10;90.70
285;DHT22;127;48.770;9.212;2023-06-14T12:21:55;35.70;88.20
285;DHT22;127;48.770;9.212;2023-06-14T12:24:48;35.20;96.20
285;DHT22;127;48.770;9.212;2023-06-14T12:27:17;35.70;93.30
285;DHT22;127;48.770;9.212;2023-06-14T12:32:58;35.90;84.40
285;DHT22;127;48.770;9.212;2023-06-14T12:35:30;35.80;95.70
285;DHT22;127;48.770;9.212;2023-06-14T12:38:00;32.60;96.20
285;DHT22;127;48.770;9.212;2023-06-14T12:40:29;32.70;94.50
285;DHT22;127;48.770;9.212;2023-06-14T12:42:58;34.70;86.20
285;DHT22;127;48.770;9.212;2023-06-14T12:45:31;35.30;86.50
285;DHT22;127;48.770;9.212;2023-06-14T12:48:06;35.00;87.00
285;DHT22;127;48.770;9.212;2023-06-14T12:50:38;34.10;90.10
285;DHT22;127;48.770;9.212;2023-06-14T12:53:07;35.10;88.50
285;DHT22;127;48.770;9.212;2023-06-14T12:55:38;35.70;82.10
285;DHT22;127;48.770;9.212;2023-06-14T12:58:07;35.60;98.80
285;DHT22;127;48.770;9.212;2023-06-14T13:00:38;36.20;79.70
285;DHT22;127;48.770;9.212;2023-06-14T13:03:06;36.10;74.70
285;DHT22;127;48.770;9.212;2023-06-14T13:05:41;35.30;79.30
285;DHT22;127;48.770;9.212;2023-06-14T13:08:11;34.90;79.30
285;DHT22;127;48.770;9.212;2023-06-14T13:10:40;34.50;78.00
285;DHT22;127;48.770;9.212;2023-06-14T13:13:09;35.90;67.90
285;DHT22;127;48.770;9.212;2023-06-14T13:15:38;37.20;59.80
285;DHT22;127;48.770;9.212;2023-06-14T13:18:06;36.20;59.40
285;DHT22;127;48.770;9.212;2023-06-14T13:20:46;37.10;69.50
285;DHT22;127;48.770;9.212;2023-06-14T13:23:15;37.70;60.00
285;DHT22;127;48.770;9.212;2023-06-14T13:25:44;35.50;58.50
285;DHT22;127;48.770;9.212;2023-06-14T13:28:15;36.10;59.20
285;DHT22;127;48.770;9.212;2023-06-14T13:30:44;36.60;60.70
285;DHT22;127;48.770;9.212;2023-06-14T13:33:19;36.80;59.10
285;DHT22;127;48.770;9.212;2023-06-14T13:35:55;37.50;60.60
285;DHT22;127;48.770;9.212;2023-06-14T13:40:55;33.50;60.50
285;DHT22;127;48.770;9.212;2023-06-14T13:43:30;32.70;77.10
285;DHT22;127;48.770;9.212;2023-06-14T13:48:30;30.20;75.60
285;DHT22;127;48.770;9.212;2023-06-14T13:51:01;30.70;85.00
285;DHT22;127;48.770;9.212;2023-06-14T13:53:55;32.90;66.00
285;DHT22;127;48.770;9.212;2023-06-14T13:58:56;34.00;99.90
285;DHT22;127;48.770;9.212;2023-06-14T14:01:26;33.90;77.00
285;DHT22;127;48.770;9.212;2023-06-14T14:03:56;34.70;59.40
285;DHT22;127;48.770;9.212;2023-06-14T14:06:30;34.60;63.00
285;DHT22;127;48.770;9.212;2023-06-14T14:08:59;35.60;60.90
285;DHT22;127;48.770;9.212;2023-06-14T14:11:31;35.80;61.30
285;DHT22;127;48.770;9.212;2023-06-14T14:14:00;35.10;61.90
285;DHT22;127;48.770;9.212;2023-06-14T14:16:29;36.60;63.20
285;DHT22;127;48.770;9.212;2023-06-14T14:18:58;37.50;63.80
285;DHT22;127;48.770;9.212;2023-06-14T14:21:30;36.10;62.00
285;DHT22;127;48.770;9.212;2023-06-14T14:23:59;36.60;59.60
285;DHT22;127;48.770;9.212;2023-06-14T14:26:27;36.50;59.00
285;DHT22;127;48.770;9.212;2023-06-14T14:28:57;35.20;58.20
285;DHT22;127;48.770;9.212;2023-06-14T14:31:26;34.00;58.80
285;DHT22;127;48.770;9.212;2023-06-14T14:33:54;33.40;59.20
285;DHT22;127;48.770;9.212;2023-06-14T14:36:23;33.60;59.10
285;DHT22;127;48.770;9.212;2023-06-14T14:38:54;31.50;62.50
285;DHT22;127;48.770;9.212;2023-06-14T14:41:23;30.70;72.20
285;DHT22;127;48.770;9.212;2023-06-14T14:43:52;31.20;72.20
285;DHT22;127;48.770;9.212;2023-06-14T14:46:20;32.40;67.00
285;DHT22;127;48.770;9.212;2023-06-14T14:48:49;32.50;65.30
285;DHT22;127;48.770;9.212;2023-06-14T14:51:17;32.60;64.20
285;DHT22;127;48.770;9.212;2023-06-14T14:53:46;33.20;57.80
285;DHT22;127;48.770;9.212;2023-06-14T14:56:17;33.50;56.90
285;DHT22;127;48.770;9.212;2023-06-14T14:58:46;33.90;59.00
285;DHT22;127;48.770;9.212;2023-06-14T15:01:15;33.20;61.80
285;DHT22;127;48.770;9.212;2023-06-14T15:03:44;33.50;67.50
285;DHT22;127;48.770;9.212;2023-06-14T15:06:12;33.40;58.20
285;DHT22;127;48.770;9.212;2023-06-14T15:08:43;33.30;57.50
285;DHT22;127;48.770;9.212;2023-06-14T15:11:12;33.20;57.30
285;DHT22;127;48.770;9.212;2023-06-14T15:13:43;33.60;57.70
285;DHT22;127;48.770;9.212;2023-06-14T15:16:12;34.20;57.40
285;DHT22;127;48.770;9.212;2023-06-14T15:18:41;32.90;56.50
285;DHT22;127;48.770;9.212;2023-06-14T15:23:39;32.00;59.10
285;DHT22;127;48.770;9.212;2023-06-14T15:26:07;32.40;62.90
285;DHT22;127;48.770;9.212;2023-06-14T15:28:36;32.40;61.60
285;DHT22;127;48.770;9.212;2023-06-14T15:31:07;32.60;61.10
285;DHT22;127;48.770;9.212;2023-06-14T15:33:36;32.60;62.20
285;DHT22;127;48.770;9.212;2023-06-14T15:36:06;32.90;58.10
285;DHT22;127;48.770;9.212;2023-06-14T15:41:04;32.70;52.70
285;DHT22;127;48.770;9.212;2023-06-14T15:43:33;31.40;68.50
285;DHT22;127;48.770;9.212;2023-06-14T15:46:02;31.70;67.30
285;DHT22;127;48.770;9.212;2023-06-14T15:48:33;32.50;64.90
285;DHT22;127;48.770;9.212;2023-06-14T15:51:02;32.90;58.30
285;DHT22;127;48.770;9.212;2023-06-14T15:53:30;32.80;59.40
285;DHT22;127;48.770;9.212;2023-06-14T15:56:00;32.30;62.90
285;DHT22;127;48.770;9.212;2023-06-14T15:58:28;31.70;67.40
285;DHT22;127;48.770;9.212;2023-06-14T16:00:57;31.80;66.30
285;DHT22;127;48.770;9.212;2023-06-14T16:03:26;31.70;67.70
285;DHT22;127;48.770;9.212;2023-06-14T16:05:57;30.80;70.00
285;DHT22;127;48.770;9.212;2023-06-14T16:08:26;30.60;71.70
285;DHT22;127;48.770;9.212;2023-06-14T16:10:55;31.00;69.60
285;DHT22;127;48.770;9.212;2023-06-14T16:13:24;31.10;69.80
285;DHT22;127;48.770;9.212;2023-06-14T16:15:52;30.80;71.50
285;DHT22;127;48.770;9.212;2023-06-14T16:18:21;30.30;72.50
285;DHT22;127;48.770;9.212;2023-06-14T16:20:50;30.40;75.80
285;DHT22;127;48.770;9.212;2023-06-14T16:23:23;30.40;74.70
285;DHT22;127;48.770;9.212;2023-06-14T16:25:51;29.90;73.50
285;DHT22;127;48.770;9.212;2023-06-14T16:28:20;29.70;99.90
285;DHT22;127;48.770;9.212;2023-06-14T16:33:18;29.70;72.20
285;DHT22;127;48.770;9.212;2023-06-14T16:35:47;29.70;79.30
285;DHT22;127;48.770;9.212;2023-06-14T16:38:16;29.60;86.20
285;DHT22;127;48.770;9.212;2023-06-14T16:40:49;29.70;73.50
285;DHT22;127;48.770;9.212;2023-06-14T16:43:21;30.20;99.80
285;DHT22;127;48.770;9.212;2023-06-14T16:45:49;30.10;78.70
285;DHT22;127;48.770;9.212;2023-06-14T16:48:18;30.20;76.50
285;DHT22;127;48.770;9.212;2023-06-14T16:50:47;29.40;79.60
285;DHT22;127;48.770;9.212;2023-06-14T16:55:44;29.60;74.70
285;DHT22;127;48.770;9.212;2023-06-14T16:58:16;29.70;75.20
285;DHT22;127;48.770;9.212;2023-06-14T17:05:54;28.00;99.90
285;DHT22;127;48.770;9.212;2023-06-14T17:13:27;26.00;90.00
285;DHT22;127;48.770;9.212;2023-06-14T17:15:59;25.80;90.60
285;DHT22;127;48.770;9.212;2023-06-14T17:18:28;25.80;95.30
285;DHT22;127;48.770;9.212;2023-06-14T17:20:56;26.00;92.80
285;DHT22;127;48.770;9.212;2023-06-14T17:28:29;25.90;91.90
285;DHT22;127;48.770;9.212;2023-06-14T17:33:35;25.90;94.50
285;DHT22;127;48.770;9.212;2023-06-14T17:36:08;26.30;97.40
285;DHT22;127;48.770;9.212;2023-06-14T17:41:06;26.70;92.30
285;DHT22;127;48.770;9.212;2023-06-14T17:43:45;24.80;94.80
285;DHT22;127;48.770;9.212;2023-06-14T17:46:19;25.50;94.70
285;DHT22;127;48.770;9.212;2023-06-14T17:58:47;25.50;95.20
285;DHT22;127;48.770;9.212;2023-06-14T18:03:52;25.30;95.70
285;DHT22;127;48.770;9.212;2023-06-14T18:14:01;24.10;98.60
285;DHT22;127;48.770;9.212;2023-06-14T18:16:30;24.10;99.90
285;DHT22;127;48.770;9.212;2023-06-14T18:19:06;23.30;99.90
285;DHT22;127;48.770;9.212;2023-06-14T18:21:38;23.00;99.90
285;DHT22;127;48.770;9.212;2023-06-14T18:24:08;23.00;99.90
285;DHT22;127;48.770;9.212;2023-06-14T18:26:37;23.30;99.90
285;DHT22;127;48.770;9.212;2023-06-14T18:29:10;23.30;99.90
285;DHT22;127;48.770;9.212;2023-06-14T18:34:08;23.00;99.90
285;DHT22;127;48.770;9.212;2023-06-14T18:36:37;22.80;99.90
285;DHT22;127;48.770;9.212;2023-06-14T18:46:36;21.80;99.90
285;DHT22;127;48.770;9.212;2023-06-14T18:56:42;21.20;99.90
285;DHT22;127;48.770;9.212;2023-06-14T18:59:15;21.10;99.90
285;DHT22;127;48.770;9.212;2023-06-14T19:02:04;20.90;99.90
285;DHT22;127;48.770;9.212;2023-06-14T19:07:13;20.70;99.90
285;DHT22;127;48.770;9.212;2023-06-14T19:14:55;20.40;99.90
285;DHT22;127;48.770;9.212;2023-06-14T19:17:27;20.40;99.90
285;DHT22;127;48.770;9.212;2023-06-14T19:22:27;20.10;99.90
285;DHT22;127;48.770;9.212;2023-06-14T19:24:59;20.10;99.90
285;DHT22;127;48.770;9.212;2023-06-14T19:27:30;20.00;99.90
285;DHT22;127;48.770;9.212;2023-06-14T19:30:05;19.80;99.90
285;DHT22;127;48.770;9.212;2023-06-14T19:32:38;19.60;99.90
285;DHT22;127;48.770;9.212;2023-06-14T19:35:10;19.50;99.90
285;DHT22;127;48.770;9.212;2023-06-14T19:40:19;19.40;99.90
285;DHT22;127;48.770;9.212;2023-06-14T19:48:23;19.00;99.90
285;DHT22;127;48.770;9.212;2023-06-14T19:53:22;19.00;99.90
285;DHT22;127;48.770;9.212;2023-06-14T19:55:50;19.00;99.90
285;DHT22;127;48.770;9.212;2023-06-14T20:03:43;18.30;99.90
285;DHT22;127;48.770;9.212;2023-06-14T20:08:44;18.80;99.90
285;DHT22;127;48.770;9.212;2023-06-14T20:11:21;18.80;99.90
285;DHT22;127;48.770;9.212;2023-06-14T20:13:56;18.60;99.90
285;DHT22;127;48.770;9.212;2023-06-14T20:16:37;18.80;99.90
285;DHT22;127;48.770;9.212;2023-06-14T20:19:11;18.40;99.90
285;DHT22;127;48.770;9.212;2023-06-14T20:26:38;18.20;99.90
285;DHT22;127;48.770;9.212;2023-06-14T20:31:36;18.20;99.90
285;DHT22;127;48.770;9.212;2023-06-14T20:34:04;18.10;99.90
285;DHT22;127;48.770;9.212;2023-06-14T20:36:36;18.10;99.90
285;DHT22;127;48.770;9.212;2023-06-14T20:39:04;18.00;99.90
285;DHT22;127;48.770;9.212;2023-06-14T20:41:33;18.00;99.90
285;DHT22;127;48.770;9.212;2023-06-14T20:44:04;17.90;99.90
285;DHT22;127;48.770;9.212;2023-06-14T20:46:34;17.80;99.90
285;DHT22;127;48.770;9.212;2023-06-14T20:49:08;17.80;99.90
285;DHT22;127;48.770;9.212;2023-06-14T20:51:39;17.70;99.90
285;DHT22;127;48.770;9.212;2023-06-14T20:54:08;17.70;99.90